createdAt,value
2018-06-19T00:01:49.788Z,92.90
2018-06-19T00:04:19.180Z,92.70
2018-06-19T00:06:48.644Z,92.50
2018-06-19T00:09:18.346Z,92.60
2018-06-19T00:11:47.340Z,92.60
2018-06-19T00:14:16.369Z,92.80
2018-06-19T00:16:45.459Z,92.90
2018-06-19T00:19:14.661Z,93.00
2018-06-19T00:22:00.756Z,93.00
2018-06-19T00:24:30.006Z,93.10
2018-06-19T00:26:58.912Z,93.10
2018-06-19T00:29:28.089Z,93.10
2018-06-19T00:31:57.556Z,93.10
2018-06-19T00:34:26.597Z,93.00
2018-06-19T00:36:55.719Z,92.90
2018-06-19T00:39:24.822Z,93.10
2018-06-19T00:41:53.919Z,93.10
2018-06-19T00:44:23.404Z,93.10
2018-06-19T00:46:53.444Z,93.00
2018-06-19T00:49:22.508Z,93.00
2018-06-19T00:51:51.532Z,93.00
2018-06-19T00:54:20.754Z,93.20
2018-06-19T00:59:26.725Z,93.60
2018-06-19T01:01:57.956Z,93.60
2018-06-19T01:04:26.939Z,93.60
2018-06-19T01:06:56.013Z,93.80
2018-06-19T01:09:25.087Z,93.90
2018-06-19T01:11:54.105Z,93.80
2018-06-19T01:14:23.222Z,93.80
2018-06-19T01:16:52.392Z,93.80
2018-06-19T01:19:21.555Z,93.80
2018-06-19T01:21:52.108Z,93.80
2018-06-19T01:24:21.741Z,93.70
2018-06-19T01:26:51.249Z,93.60
2018-06-19T01:29:20.360Z,93.60
2018-06-19T01:31:49.451Z,93.50
2018-06-19T01:34:18.796Z,93.50
2018-06-19T01:36:47.934Z,93.50
2018-06-19T01:39:17.836Z,93.60
2018-06-19T01:41:46.729Z,93.50
2018-06-19T01:44:15.805Z,93.60
2018-06-19T01:46:44.915Z,93.80
2018-06-19T01:49:14.021Z,93.90
2018-06-19T01:51:43.904Z,94.00
2018-06-19T01:54:13.004Z,94.00
2018-06-19T01:56:42.023Z,94.10
2018-06-19T01:59:11.629Z,94.10
2018-06-19T02:01:40.623Z,94.30
2018-06-19T02:04:10.652Z,94.30
2018-06-19T02:06:40.142Z,94.20
2018-06-19T02:09:09.770Z,94.00
2018-06-19T02:11:38.852Z,94.00
2018-06-19T02:14:07.813Z,93.90
2018-06-19T02:16:37.349Z,93.80
2018-06-19T02:19:06.472Z,93.80
2018-06-19T02:24:04.508Z,93.70
2018-06-19T02:26:33.628Z,93.70
2018-06-19T02:29:02.643Z,94.00
2018-06-19T02:31:32.361Z,93.60
2018-06-19T02:34:01.885Z,93.70
2018-06-19T02:36:30.920Z,93.80
2018-06-19T02:38:59.994Z,93.90
2018-06-19T02:41:29.124Z,93.90
2018-06-19T02:43:58.192Z,94.00
2018-06-19T02:46:28.290Z,94.20
2018-06-19T02:48:57.696Z,94.00
2018-06-19T02:51:27.881Z,93.90
2018-06-19T02:53:56.957Z,93.80
2018-06-19T02:56:26.609Z,93.90
2018-06-19T02:58:55.800Z,94.10
2018-06-19T03:01:25.526Z,94.10
2018-06-19T03:03:54.752Z,94.10
2018-06-19T03:06:23.729Z,94.10
2018-06-19T03:08:52.727Z,94.00
2018-06-19T03:11:21.807Z,94.10
2018-06-19T03:13:51.001Z,94.10
2018-06-19T03:16:20.097Z,94.00
2018-06-19T03:18:49.208Z,93.90
2018-06-19T03:21:18.381Z,93.90
2018-06-19T03:23:47.513Z,94.00
2018-06-19T03:26:17.365Z,93.90
2018-06-19T03:28:46.413Z,93.90
2018-06-19T03:31:15.849Z,93.90
2018-06-19T03:33:44.914Z,93.90
2018-06-19T03:36:14.018Z,93.90
2018-06-19T03:38:43.130Z,93.90
2018-06-19T03:41:12.794Z,93.80
2018-06-19T03:43:42.745Z,94.10
2018-06-19T03:46:11.852Z,93.90
2018-06-19T03:48:40.972Z,93.90
2018-06-19T03:51:10.092Z,93.90
2018-06-19T03:53:39.783Z,93.80
2018-06-19T03:56:08.840Z,93.70
2018-06-19T03:58:38.088Z,93.70
2018-06-19T04:01:07.248Z,93.50
2018-06-19T04:03:36.660Z,93.50
2018-06-19T04:06:06.963Z,93.50
2018-06-19T04:08:36.020Z,93.40
2018-06-19T04:11:05.439Z,93.30
2018-06-19T04:13:34.609Z,93.30
2018-06-19T04:16:04.245Z,93.30
2018-06-19T04:18:33.340Z,93.20
2018-06-19T04:21:02.417Z,93.20
2018-06-19T04:23:31.930Z,93.20
2018-06-19T04:26:01.380Z,93.20
2018-06-19T04:28:30.540Z,93.20
2018-06-19T04:30:59.633Z,93.20
2018-06-19T04:33:28.776Z,93.10
2018-06-19T04:35:57.741Z,93.10
2018-06-19T04:38:26.806Z,93.10
2018-06-19T04:40:56.004Z,93.10
2018-06-19T04:43:25.853Z,93.00
2018-06-19T04:48:23.526Z,93.00
2018-06-19T04:50:52.960Z,93.10
2018-06-19T04:53:22.234Z,93.40
2018-06-19T04:55:51.209Z,93.10
2018-06-19T04:58:20.345Z,93.10
2018-06-19T05:00:50.011Z,92.90
2018-06-19T05:03:18.996Z,92.90
2018-06-19T05:05:48.039Z,92.80
2018-06-19T05:08:18.023Z,93.00
2018-06-19T05:10:47.100Z,92.90
2018-06-19T05:13:16.197Z,92.70
2018-06-19T05:15:45.319Z,92.70
2018-06-19T05:18:14.822Z,92.60
2018-06-19T05:20:44.003Z,92.70
2018-06-19T05:23:13.618Z,92.60
2018-06-19T05:25:42.808Z,92.60
2018-06-19T05:28:11.928Z,92.80
2018-06-19T05:30:41.682Z,92.90
2018-06-19T05:33:11.739Z,92.70
2018-06-19T05:35:40.915Z,92.60
2018-06-19T05:38:10.014Z,92.60
2018-06-19T05:40:39.232Z,92.40
2018-06-19T05:43:08.413Z,92.00
2018-06-19T05:45:37.728Z,91.60
2018-06-19T05:48:07.004Z,91.50
2018-06-19T05:50:36.452Z,91.10
2018-06-19T05:53:05.599Z,90.80
2018-06-19T05:55:35.697Z,90.50
2018-06-19T05:58:04.851Z,90.40
2018-06-19T06:03:02.714Z,90.40
2018-06-19T06:05:32.759Z,90.20
2018-06-19T06:08:01.957Z,90.30
2018-06-19T06:10:31.542Z,90.60
2018-06-19T06:13:00.737Z,90.30
2018-06-19T06:15:30.032Z,90.10
2018-06-19T06:17:59.235Z,90.20
2018-06-19T06:20:28.424Z,89.70
2018-06-19T06:22:57.626Z,90.10
2018-06-19T06:25:26.725Z,90.10
2018-06-19T06:27:55.708Z,90.30
2018-06-19T06:30:25.331Z,90.10
2018-06-19T06:32:54.628Z,89.40
2018-06-19T06:35:23.843Z,89.60
2018-06-19T06:37:52.908Z,88.70
2018-06-19T06:40:22.182Z,88.60
2018-06-19T06:42:52.199Z,87.70
2018-06-19T06:45:21.484Z,88.20
2018-06-19T06:47:51.263Z,87.60
2018-06-19T06:50:21.258Z,87.40
2018-06-19T06:52:50.524Z,87.70
2018-06-19T06:55:19.536Z,86.20
2018-06-19T06:57:49.426Z,84.70
2018-06-19T07:00:18.572Z,84.40
2018-06-19T07:02:47.645Z,85.90
2018-06-19T07:05:16.760Z,84.80
2018-06-19T07:07:46.360Z,83.10
2018-06-19T07:10:15.768Z,82.60
2018-06-19T07:12:45.768Z,82.30
2018-06-19T07:15:15.389Z,81.60
2018-06-19T07:17:44.188Z,81.70
2018-06-19T07:20:13.272Z,81.00
2018-06-19T07:22:42.358Z,79.90
2018-06-19T07:25:11.544Z,78.90
2018-06-19T07:27:40.968Z,78.10
2018-06-19T07:30:10.053Z,79.40
2018-06-19T07:32:39.648Z,77.20
2018-06-19T07:35:09.370Z,77.80
2018-06-19T07:37:38.439Z,77.40
2018-06-19T07:40:07.686Z,77.20
2018-06-19T07:42:36.736Z,76.80
2018-06-19T07:45:06.373Z,76.10
2018-06-19T07:47:36.077Z,75.00
2018-06-19T07:50:05.485Z,75.80
2018-06-19T07:52:34.552Z,76.00
2018-06-19T07:55:03.656Z,75.30
2018-06-19T07:57:32.780Z,75.00
2018-06-19T08:00:02.145Z,75.80
2018-06-19T08:02:31.292Z,75.30
2018-06-19T08:05:00.540Z,74.30
2018-06-19T08:07:30.273Z,74.40
2018-06-19T08:09:59.337Z,74.90
2018-06-19T08:12:28.435Z,74.40
2018-06-19T08:14:58.034Z,74.10
2018-06-19T08:17:27.453Z,73.30
2018-06-19T08:19:56.598Z,71.50
2018-06-19T08:22:25.745Z,71.80
2018-06-19T08:24:54.828Z,72.60
2018-06-19T08:27:23.837Z,71.90
2018-06-19T08:29:52.933Z,72.00
2018-06-19T08:32:23.360Z,71.20
2018-06-19T08:34:52.762Z,70.70
2018-06-19T08:37:22.914Z,70.30
2018-06-19T08:39:51.952Z,70.00
2018-06-19T08:42:21.101Z,69.70
2018-06-19T08:44:50.172Z,70.30
2018-06-19T08:47:19.803Z,70.00
2018-06-19T08:49:49.167Z,71.70
2018-06-19T08:52:18.326Z,69.80
2018-06-19T08:54:47.500Z,70.10
2018-06-19T08:57:16.543Z,70.30
2018-06-19T08:59:45.597Z,71.30
2018-06-19T09:04:43.242Z,70.80
2018-06-19T09:07:12.310Z,70.00
2018-06-19T09:09:42.040Z,69.40
2018-06-19T09:12:11.737Z,69.10
2018-06-19T09:14:41.568Z,67.80
2018-06-19T09:17:10.641Z,67.40
2018-06-19T09:19:40.201Z,67.30
2018-06-19T09:22:09.289Z,67.70
2018-06-19T09:24:38.635Z,65.60
2018-06-19T09:27:08.392Z,64.50
2018-06-19T09:29:37.437Z,65.00
2018-06-19T09:32:06.573Z,65.00
2018-06-19T09:34:35.771Z,64.50
2018-06-19T09:37:04.892Z,63.40
2018-06-19T09:39:34.061Z,62.00
2018-06-19T09:42:03.364Z,64.50
2018-06-19T09:44:32.731Z,63.50
2018-06-19T09:47:01.916Z,63.60
2018-06-19T09:49:31.561Z,61.90
2018-06-19T09:52:00.740Z,59.20
2018-06-19T09:54:29.973Z,60.70
2018-06-19T09:56:59.128Z,61.60
2018-06-19T09:59:28.339Z,62.10
2018-06-19T10:01:58.186Z,60.40
2018-06-19T10:04:27.352Z,59.70
2018-06-19T10:06:57.102Z,60.70
2018-06-19T10:09:26.273Z,60.60
2018-06-19T10:14:24.195Z,61.30
2018-06-19T10:16:53.424Z,60.60
2018-06-19T10:19:22.639Z,60.40
2018-06-19T10:21:51.735Z,59.10
2018-06-19T10:24:20.800Z,59.80
2018-06-19T10:26:50.349Z,60.50
2018-06-19T10:29:19.330Z,60.30
2018-06-19T10:31:48.331Z,62.00
2018-06-19T10:34:17.615Z,63.30
2018-06-19T10:36:47.183Z,63.30
2018-06-19T10:39:16.944Z,61.80
2018-06-19T10:41:46.198Z,61.40
2018-06-19T10:44:15.672Z,61.80
2018-06-19T10:46:45.023Z,62.60
2018-06-19T10:49:14.136Z,62.60
2018-06-19T10:51:43.600Z,62.80
2018-06-19T10:54:12.825Z,64.30
2018-06-19T10:56:41.865Z,65.00
2018-06-19T10:59:11.148Z,63.80
2018-06-19T11:01:40.303Z,62.90
2018-06-19T11:04:09.855Z,62.70
2018-06-19T11:06:38.944Z,61.30
2018-06-19T11:09:09.825Z,60.30
2018-06-19T11:11:38.972Z,59.80
2018-06-19T11:14:08.115Z,60.60
2018-06-19T11:16:37.264Z,59.90
2018-06-19T11:19:06.433Z,59.70
2018-06-19T11:21:35.548Z,60.50
2018-06-19T11:24:04.680Z,59.70
2018-06-19T11:26:33.757Z,59.50
2018-06-19T11:29:02.839Z,60.40
2018-06-19T11:31:33.017Z,59.10
2018-06-19T11:34:02.831Z,58.80
2018-06-19T11:36:32.068Z,59.20
2018-06-19T11:39:01.767Z,59.30
2018-06-19T11:41:30.842Z,57.50
2018-06-19T11:43:59.992Z,58.30
2018-06-19T11:46:29.465Z,58.60
2018-06-19T11:48:58.576Z,58.20
2018-06-19T11:51:27.702Z,56.80
2018-06-19T11:53:56.783Z,57.80
2018-06-19T11:56:25.830Z,57.90
2018-06-19T11:58:54.969Z,57.50
2018-06-19T12:01:24.057Z,57.70
2018-06-19T12:03:53.279Z,57.90
2018-06-19T12:06:22.444Z,57.00
2018-06-19T12:08:51.786Z,56.40
2018-06-19T12:11:20.985Z,56.20
2018-06-19T12:13:50.114Z,57.10
2018-06-19T12:16:19.333Z,57.90
2018-06-19T12:18:48.769Z,56.70
2018-06-19T12:21:17.953Z,57.40
2018-06-19T12:23:47.234Z,56.10
2018-06-19T12:26:17.573Z,52.80
2018-06-19T12:28:46.644Z,53.20
2018-06-19T12:31:15.740Z,54.40
2018-06-19T12:33:44.815Z,55.40
2018-06-19T12:36:15.180Z,55.20
2018-06-19T12:38:44.756Z,54.90
2018-06-19T12:41:14.056Z,55.90
2018-06-19T12:43:43.572Z,57.10
2018-06-19T12:46:12.593Z,55.90
2018-06-19T12:48:41.884Z,54.60
2018-06-19T12:51:47.924Z,55.50
2018-06-19T12:54:31.565Z,55.80
2018-06-19T12:57:00.681Z,55.40
2018-06-19T12:59:29.920Z,55.30
2018-06-19T13:01:58.964Z,56.20
2018-06-19T13:04:39.107Z,54.60
2018-06-19T13:07:08.609Z,54.40
2018-06-19T13:09:37.733Z,56.10
2018-06-19T13:13:13.665Z,56.20
2018-06-19T13:15:42.780Z,55.40
2018-06-19T13:18:22.885Z,55.20
2018-06-19T13:20:53.237Z,55.20
2018-06-19T13:23:22.745Z,56.10
2018-06-19T13:25:51.940Z,55.50
2018-06-19T13:28:22.004Z,56.50
2018-06-19T13:31:02.140Z,58.70
2018-06-19T13:33:31.177Z,57.60
2018-06-19T13:36:00.713Z,57.50
2018-06-19T13:38:30.573Z,56.50
2018-06-19T13:41:18.109Z,57.20
2018-06-19T13:43:59.249Z,57.70
2018-06-19T13:46:28.342Z,58.00
2018-06-19T13:48:57.397Z,56.70
2018-06-19T13:51:26.736Z,58.10
2018-06-19T13:53:55.959Z,58.20
2018-06-19T13:57:40.020Z,56.70
2018-06-19T14:00:13.054Z,55.70
2018-06-19T14:02:42.310Z,56.30
2018-06-19T14:05:12.198Z,56.90
2018-06-19T14:07:51.534Z,56.80
2018-06-19T14:10:31.758Z,56.50
2018-06-19T14:13:02.612Z,57.00
2018-06-19T14:15:36.447Z,56.70
2018-06-19T14:18:06.153Z,57.20
2018-06-19T14:20:35.123Z,55.90
2018-06-19T14:23:04.317Z,56.00
2018-06-19T14:25:34.029Z,57.10
2018-06-19T14:28:03.030Z,56.00
2018-06-19T14:30:32.109Z,55.90
2018-06-19T14:33:01.182Z,57.40
2018-06-19T14:35:30.314Z,58.50
2018-06-19T14:37:59.384Z,57.50
2018-06-19T14:40:29.119Z,58.20
2018-06-19T14:42:58.168Z,59.00
2018-06-19T14:45:27.297Z,58.20
2018-06-19T14:47:56.269Z,57.40
2018-06-19T14:50:25.590Z,57.20
2018-06-19T14:52:55.600Z,56.20
2018-06-19T14:55:24.857Z,55.50
2018-06-19T14:57:54.001Z,54.50
2018-06-19T15:00:23.633Z,56.00
2018-06-19T15:02:52.813Z,56.20
2018-06-19T15:05:21.866Z,56.70
2018-06-19T15:07:52.399Z,56.70
2018-06-19T15:10:21.796Z,56.10
2018-06-19T15:12:50.785Z,56.40
2018-06-19T15:15:19.884Z,57.00
2018-06-19T15:17:48.941Z,56.40
2018-06-19T15:20:18.248Z,57.10
2018-06-19T15:22:47.406Z,56.40
2018-06-19T15:25:16.495Z,57.70
2018-06-19T15:27:45.603Z,56.80
2018-06-19T15:30:14.987Z,56.70
2018-06-19T15:32:45.347Z,56.60
2018-06-19T15:35:14.380Z,55.90
2018-06-19T15:37:43.606Z,56.80
2018-06-19T15:42:41.792Z,57.20
2018-06-19T15:45:10.822Z,56.50
2018-06-19T15:47:39.888Z,57.50
2018-06-19T15:50:09.339Z,56.50
2018-06-19T15:52:38.477Z,56.90
2018-06-19T15:55:07.576Z,56.70
2018-06-19T15:57:37.782Z,57.10
2018-06-19T16:00:07.553Z,56.60
2018-06-19T16:02:36.701Z,57.10
2018-06-19T16:05:05.700Z,58.30
2018-06-19T16:07:34.732Z,58.20
2018-06-19T16:10:04.913Z,58.10
2018-06-19T16:12:34.013Z,57.80
2018-06-19T16:15:02.974Z,57.70
2018-06-19T16:17:32.132Z,58.60
2018-06-19T16:20:01.200Z,59.60
2018-06-19T16:22:30.321Z,59.40
2018-06-19T16:24:59.692Z,59.10
2018-06-19T16:27:28.812Z,59.00
2018-06-19T16:29:57.967Z,58.60
2018-06-19T16:32:27.544Z,59.30
2018-06-19T16:34:56.868Z,59.70
2018-06-19T16:37:25.977Z,59.80
2018-06-19T16:39:55.117Z,60.50
2018-06-19T16:42:24.270Z,60.90
2018-06-19T16:44:53.823Z,61.40
2018-06-19T16:47:23.661Z,61.90
2018-06-19T16:49:53.142Z,61.90
2018-06-19T16:52:22.296Z,61.70
2018-06-19T16:54:51.536Z,61.30
2018-06-19T16:57:20.568Z,62.90
2018-06-19T16:59:49.820Z,64.10
2018-06-19T17:02:18.817Z,63.80
2018-06-19T17:04:48.026Z,64.50
2018-06-19T17:07:17.422Z,65.90
2018-06-19T17:09:46.583Z,65.20
2018-06-19T17:12:16.195Z,64.70
2018-06-19T17:14:45.691Z,63.30
2018-06-19T17:17:15.080Z,63.80
2018-06-19T17:19:44.823Z,64.00
2018-06-19T17:22:13.992Z,64.00
2018-06-19T17:24:43.045Z,65.50
2018-06-19T17:27:13.208Z,65.60
2018-06-19T17:29:42.229Z,65.50
2018-06-19T17:32:11.185Z,66.10
2018-06-19T17:34:40.419Z,65.50
2018-06-19T17:37:10.305Z,65.30
2018-06-19T17:39:39.199Z,66.00
2018-06-19T17:42:08.260Z,65.70
2018-06-19T17:44:37.489Z,65.40
2018-06-19T17:47:06.725Z,66.00
2018-06-19T17:49:35.805Z,65.80
2018-06-19T17:52:05.140Z,65.90
2018-06-19T17:54:34.163Z,64.60
2018-06-19T17:57:03.257Z,64.60
2018-06-19T17:59:32.183Z,65.20
2018-06-19T18:02:01.402Z,65.70
2018-06-19T18:04:30.504Z,65.60
2018-06-19T18:06:59.820Z,66.70
2018-06-19T18:09:28.987Z,66.70
2018-06-19T18:11:58.047Z,65.50
2018-06-19T18:14:27.167Z,65.70
2018-06-19T18:16:56.482Z,65.60
2018-06-19T18:19:25.634Z,66.30
2018-06-19T18:21:54.783Z,66.70
2018-06-19T18:24:23.857Z,66.80
2018-06-19T18:26:53.009Z,67.20
2018-06-19T18:29:21.963Z,67.50
2018-06-19T18:31:51.489Z,68.00
2018-06-19T18:34:20.921Z,68.10
2018-06-19T18:36:50.509Z,68.20
2018-06-19T18:39:19.601Z,68.20
2018-06-19T18:41:49.169Z,68.60
2018-06-19T18:44:19.026Z,69.20
2018-06-19T18:46:48.217Z,70.00
2018-06-19T18:51:45.514Z,72.40
2018-06-19T18:54:14.732Z,71.00
2018-06-19T18:56:44.498Z,71.40
2018-06-19T18:59:13.497Z,71.80
2018-06-19T19:01:42.637Z,72.40
2018-06-19T19:04:11.807Z,72.90
2018-06-19T19:06:40.911Z,73.00
2018-06-19T19:09:10.936Z,73.40
2018-06-19T19:11:40.452Z,73.60
2018-06-19T19:14:10.326Z,74.00
2018-06-19T19:16:45.324Z,74.10
2018-06-19T19:19:18.256Z,74.70
2018-06-19T19:21:47.973Z,74.90
2018-06-19T19:24:17.729Z,74.80
2018-06-19T19:26:52.319Z,75.10
2018-06-19T19:29:26.712Z,75.70
2018-06-19T19:31:55.770Z,76.30
2018-06-19T19:34:25.354Z,76.70
2018-06-19T19:36:59.666Z,77.20
2018-06-19T19:39:31.394Z,77.70
2018-06-19T19:42:00.951Z,78.10
2018-06-19T19:44:31.212Z,78.50
2018-06-19T19:47:06.422Z,78.90
2018-06-19T19:49:35.654Z,80.00
2018-06-19T19:52:04.756Z,80.40
2018-06-19T19:54:34.632Z,81.00
2018-06-19T19:57:11.470Z,81.30
2018-06-19T19:59:41.333Z,81.80
2018-06-19T20:02:11.056Z,82.20
2018-06-19T20:04:41.329Z,83.00
2018-06-19T20:07:12.378Z,82.40
2018-06-19T20:09:41.996Z,82.50
2018-06-19T20:12:11.513Z,82.80
2018-06-19T20:14:40.773Z,83.40
2018-06-19T20:17:11.084Z,83.60
2018-06-19T20:19:40.689Z,83.70
2018-06-19T20:22:11.636Z,84.50
2018-06-19T20:24:42.116Z,84.00
2018-06-19T20:27:11.375Z,84.40
2018-06-19T20:29:40.738Z,84.20
2018-06-19T20:32:10.018Z,84.80
2018-06-19T20:37:07.821Z,85.70
2018-06-19T20:39:37.338Z,86.30
2018-06-19T20:42:07.669Z,86.50
2018-06-19T20:44:37.540Z,86.50
2018-06-19T20:47:06.784Z,87.50
2018-06-19T20:49:36.381Z,86.70
2018-06-19T20:52:05.476Z,87.00
2018-06-19T20:57:03.241Z,87.50
2018-06-19T20:59:32.269Z,87.10
2018-06-19T21:02:02.264Z,87.80
2018-06-19T21:04:31.469Z,88.70
2018-06-19T21:09:29.145Z,90.10
2018-06-19T21:14:27.605Z,90.00
2018-06-19T21:16:57.050Z,90.20
2018-06-19T21:19:26.109Z,90.30
2018-06-19T21:21:55.574Z,89.60
2018-06-19T21:24:25.264Z,90.00
2018-06-19T21:26:54.356Z,90.00
2018-06-19T21:29:23.616Z,90.10
2018-06-19T21:31:52.731Z,90.20
2018-06-19T21:34:21.833Z,90.20
2018-06-19T21:36:50.925Z,90.30
2018-06-19T21:39:20.136Z,90.20
2018-06-19T21:41:49.301Z,90.20
2018-06-19T21:44:18.762Z,90.20
2018-06-19T21:46:48.922Z,90.50
2018-06-19T21:49:18.053Z,90.20
2018-06-19T21:51:48.272Z,90.30
2018-06-19T21:54:17.713Z,90.50
2018-06-19T21:56:47.467Z,90.60
2018-06-19T21:59:16.474Z,90.70
2018-06-19T22:01:45.581Z,91.30
2018-06-19T22:04:14.656Z,91.10
2018-06-19T22:06:43.761Z,90.90
2018-06-19T22:09:12.839Z,90.90
2018-06-19T22:11:41.857Z,91.00
2018-06-19T22:14:10.930Z,91.00
2018-06-19T22:16:40.042Z,90.90
2018-06-19T22:19:09.045Z,90.80
2018-06-19T22:21:39.132Z,91.10
2018-06-19T22:24:08.260Z,91.10
2018-06-19T22:26:38.116Z,91.30
2018-06-19T22:29:07.137Z,91.30
2018-06-19T22:31:36.845Z,91.20
2018-06-19T22:34:05.765Z,91.30
2018-06-19T22:36:34.808Z,91.50
2018-06-19T22:39:04.796Z,91.60
2018-06-19T22:41:34.042Z,91.60
2018-06-19T22:44:03.300Z,91.70
2018-06-19T22:46:32.339Z,92.10
2018-06-19T22:49:02.259Z,92.00
2018-06-19T22:51:31.377Z,92.10
2018-06-19T22:54:00.548Z,92.20
2018-06-19T22:56:29.668Z,92.30
2018-06-19T22:58:59.388Z,92.30
2018-06-19T23:01:28.513Z,92.50
2018-06-19T23:03:57.640Z,92.60
2018-06-19T23:06:26.711Z,92.90
2018-06-19T23:08:56.175Z,92.60
2018-06-19T23:11:25.614Z,92.60
2018-06-19T23:13:55.083Z,92.80
2018-06-19T23:16:24.460Z,92.90
2018-06-19T23:18:53.538Z,92.80
2018-06-19T23:21:22.855Z,92.70
2018-06-19T23:23:52.626Z,92.70
2018-06-19T23:26:22.582Z,92.70
2018-06-19T23:28:52.504Z,92.70
2018-06-19T23:31:21.900Z,92.60
2018-06-19T23:33:51.489Z,92.60
2018-06-19T23:36:20.575Z,92.60
2018-06-19T23:38:49.683Z,92.60
2018-06-19T23:41:18.873Z,92.60
2018-06-19T23:43:47.977Z,92.60
2018-06-19T23:46:17.053Z,92.60
2018-06-19T23:48:46.392Z,92.50
2018-06-19T23:51:15.829Z,92.40
2018-06-19T23:53:45.502Z,92.10
2018-06-19T23:56:14.492Z,92.30
2018-06-19T23:58:44.257Z,92.30
